Galena Airport

About
Name: Galena Airport
Identifier:  GAL/PAGA
Serves:  Galena, Alaska
Owner:  State of Alaska DOT&PF - Northern Region
Public/Private:  Public
Local Time:  22. Aug 20:50 AKDT
Description: Edward G. Pitka Sr. Airport is a state owned, public use airport located in Galena, a city in the Yukon-Koyukuk Census Area of the U.S. state of Alaska.
Source: Wikipedia
Location
Runways
Identifier Length (m/ft) Surface
7/25 7,249/7,249 Asphalt/Concrete
6/24 2,786/2,786 Gravel Ski Strip
Flights per Day
7 flights
Distance: 265km (164mi)
Punctuality
63% (2 flights per day delayed)
Delay Average: 28 minutes
Current Weather
 16 C (Humidity: 51%)
  5kt (9km/h / 5mph) from 300°
  Scattered clouds at 6,000 feet (1,828 meter)
  16km (10 mi.)
 METAR PAGA 230356Z AUTO 30005KT 10SM SCT060 16/06 A2964 RMK AO2 SLP038 T01610061

Current Flights

Departures
Number Departure To Airline
Arrivals
Number Arrival From Airline

Current Delays

Departures
N/A
Arrivals
N/A

Destinations

Top Destinations
Airport Flights
per week
Seats
per week
  Fairbanks (FAI) 0 - 0 0
  Anchorage (ANC) 0 17 0 2
  Kotzebue (OTZ) 0 8 0 1

Airlines & Planes

Top Airlines
Airline Flights
per Day
Seats
per Day
  Era Alaska 0 3
Ravn Alaska 0 -
Top Plane Types
Model Flights Seats
Bombardier Dash 8-100 0.1/day 3/day 3.7
Beech 1900D 0.1/day - 0